TTN weather

Trenton Mercer Airport
Trenton, New Jersey, United States

Public forecast

Using degrees Fahrenheit for public forecast. Weather courtesy of forecast.io.

METAR (pilot weather report)

Retrieved 2019/07/20 04:53 UTC (15 minutes ago):

KTTN 200453Z AUTO 23004KT 10SM CLR 28/24 A2986 RMK AO2 SLP104 T02830239 403390217

TAF (pilot weather forecast)

Forecast is more than 12 hours old.

Retrieved 2019/07/19 00:22 UTC (1 day ago):

TAF KTTN 192320Z 2000/2024 25008KT P6SM FEW050 SCT250 FM200100 VRB03KT P6SM SCT250 FM200900 VRB03KT 6SM BR SCT200 FM201400 27007KT P6SM FEW040 SCT200